Time;durP1;ratioP1;P1;durP2;ratioP2;P2;SDS_P1;SDS_P2;PMS_P1;PMS_P2;Temp;Humidity;BMP_temperature;BMP_pressure;BME280_temperature;BME280_humidity;BME280_pressure;Samples;Min_cycle;Max_cycle;Signal;HPM_P1;HPM_P2
2022/03/10 00:00:09;;;;;;;30.90;18.90;;;;;;;5.41;52.89;102066.28;3589060;40;20047;-62
2022/03/10 00:02:35;;;;;;;31.88;19.17;;;;;;;5.30;53.27;102059.38;3589355;40;20476;-63
2022/03/10 00:05:01;;;;;;;32.38;19.13;;;;;;;5.23;52.99;102067.50;3588758;40;20056;-62
2022/03/10 00:07:26;;;;;;;31.42;18.75;;;;;;;5.28;52.59;102065.66;3589553;40;20062;-62
2022/03/10 00:09:52;;;;;;;33.13;18.55;;;;;;;5.22;52.90;102068.44;3589894;40;20043;-62
2022/03/10 00:12:18;;;;;;;34.47;18.58;;;;;;;5.26;53.93;102083.44;3582612;40;20059;-62
2022/03/10 00:14:43;;;;;;;33.92;19.42;;;;;;;5.23;53.57;102088.84;3590881;40;20044;-62
2022/03/10 00:17:09;;;;;;;32.25;19.17;;;;;;;5.19;53.22;102085.34;3589934;40;20067;-62
2022/03/10 00:19:34;;;;;;;34.97;19.60;;;;;;;5.11;53.75;102076.66;3588411;40;20267;-62
2022/03/10 00:22:00;;;;;;;36.53;20.02;;;;;;;5.15;53.53;102089.00;3589354;40;20058;-62
2022/03/10 00:24:26;;;;;;;31.30;19.38;;;;;;;5.12;53.88;102086.38;3587796;40;20401;-62
2022/03/10 00:26:52;;;;;;;33.95;20.40;;;;;;;5.14;53.97;102079.25;3589131;40;20051;-62
2022/03/10 00:29:17;;;;;;;32.50;19.00;;;;;;;5.13;53.70;102082.81;3588055;40;20056;-62
2022/03/10 00:31:43;;;;;;;36.28;20.63;;;;;;;5.13;53.87;102080.13;3580092;40;20048;-61
2022/03/10 00:34:09;;;;;;;34.17;18.83;;;;;;;5.16;53.47;102080.09;3587657;40;20418;-61
2022/03/10 00:36:35;;;;;;;36.22;19.80;;;;;;;5.21;53.85;102075.56;3589299;40;20386;-61
2022/03/10 00:39:01;;;;;;;35.33;20.73;;;;;;;5.23;54.30;102076.41;3590288;40;20055;-61
2022/03/10 00:41:27;;;;;;;33.30;20.13;;;;;;;5.18;53.96;102069.41;3590053;40;20117;-61
2022/03/10 00:43:53;;;;;;;33.42;20.02;;;;;;;5.21;54.12;102078.22;3590150;39;20088;-61
2022/03/10 00:46:18;;;;;;;33.88;20.23;;;;;;;5.18;54.36;102080.94;3587786;40;20070;-61
2022/03/10 00:48:44;;;;;;;33.47;20.25;;;;;;;5.16;54.23;102081.88;3589946;40;20051;-62
2022/03/10 00:51:09;;;;;;;37.70;20.38;;;;;;;5.11;54.54;102085.50;3588470;40;20063;-61
2022/03/10 00:53:35;;;;;;;35.50;20.23;;;;;;;5.11;55.10;102089.97;3592372;40;20406;-61
2022/03/10 00:56:02;;;;;;;32.28;20.65;;;;;;;4.98;55.10;102077.75;3590120;40;20129;-61
2022/03/10 00:58:28;;;;;;;34.55;20.25;;;;;;;5.03;55.63;102086.56;3590284;40;20043;-61
2022/03/10 01:00:53;;;;;;;33.38;20.00;;;;;;;4.98;55.50;102088.41;3591641;40;20054;-61
2022/03/10 01:03:20;;;;;;;34.65;19.98;;;;;;;4.91;56.04;102089.44;3587986;40;20067;-61
2022/03/10 01:05:46;;;;;;;35.17;20.08;;;;;;;4.87;56.19;102086.84;3590536;40;20402;-61
2022/03/10 01:08:13;;;;;;;31.85;20.17;;;;;;;4.82;56.02;102088.72;3591225;40;20597;-61
2022/03/10 01:10:40;;;;;;;35.05;20.90;;;;;;;4.70;56.67;102072.94;3588951;40;20437;-61
2022/03/10 01:13:18;;;;;;;32.75;20.15;;;;;;;4.64;56.84;102078.38;3587625;40;20051;-61
2022/03/10 01:15:48;;;;;;;36.40;21.13;;;;;;;4.52;58.02;102070.59;3587809;40;20063;-61
2022/03/10 01:18:14;;;;;;;35.45;21.30;;;;;;;4.62;57.80;102091.69;3586936;40;20471;-61
2022/03/10 01:20:42;;;;;;;32.83;19.88;;;;;;;4.61;58.32;102087.28;3588181;40;20126;-61
2022/03/10 01:23:10;;;;;;;36.22;21.10;;;;;;;4.58;57.01;102083.81;3588369;40;20154;-61
2022/03/10 01:25:36;;;;;;;36.65;20.13;;;;;;;4.60;57.06;102082.88;3588187;40;20089;-61
2022/03/10 01:28:02;;;;;;;32.83;20.58;;;;;;;4.63;56.25;102081.91;3590656;40;20060;-62
2022/03/10 01:30:27;;;;;;;32.83;19.60;;;;;;;4.67;55.52;102080.13;3580826;40;20055;-61
2022/03/10 01:32:53;;;;;;;32.38;19.35;;;;;;;4.61;55.63;102063.31;3579146;40;20385;-61
2022/03/10 01:35:18;;;;;;;32.28;20.15;;;;;;;4.73;55.62;102072.03;3589666;40;20576;-61
2022/03/10 01:37:44;;;;;;;34.58;20.63;;;;;;;4.75;55.56;102083.50;3591040;40;20054;-63
2022/03/10 01:40:15;;;;;;;35.63;20.17;;;;;;;4.75;55.25;102073.72;3592836;40;20060;-61
2022/03/10 01:42:42;;;;;;;31.55;19.63;;;;;;;4.79;54.64;102082.53;3593221;39;20070;-61
2022/03/10 01:45:10;;;;;;;31.23;20.10;;;;;;;4.78;55.53;102084.31;3591925;40;20104;-61
2022/03/10 01:47:36;;;;;;;32.25;20.10;;;;;;;4.77;55.31;102071.91;3592913;40;20054;-61
2022/03/10 01:50:04;;;;;;;38.78;20.45;;;;;;;4.77;55.27;102077.25;3591623;40;20064;-61
2022/03/10 01:52:30;;;;;;;34.53;19.38;;;;;;;4.77;55.96;102076.38;3587592;40;20371;-61
2022/03/10 01:54:57;;;;;;;33.38;20.45;;;;;;;4.69;54.84;102065.84;3589697;40;20382;-61
2022/03/10 01:57:24;;;;;;;37.40;21.48;;;;;;;4.74;55.26;102071.97;3592313;40;20043;-61
2022/03/10 01:59:51;;;;;;;31.73;19.85;;;;;;;4.73;55.25;102078.22;3589767;40;20052;-61
2022/03/10 02:02:17;;;;;;;32.85;20.33;;;;;;;4.72;55.60;102071.13;3590592;39;20054;-61
2022/03/10 02:04:42;;;;;;;37.50;19.85;;;;;;;4.69;55.85;102071.16;3589125;39;20044;-61
2022/03/10 02:10:16;;;;;;;33.20;20.95;;;;;;;4.64;55.92;102070.38;3591503;40;20075;-61
2022/03/10 02:12:39;;;;;;;36.40;21.35;;;;;;;4.52;57.29;102079.44;3590577;40;20318;-61
2022/03/10 02:18:19;;;;;;;33.72;20.75;;;;;;;4.35;57.96;102071.75;3587393;40;20338;-61
2022/03/10 02:20:45;;;;;;;35.67;21.65;;;;;;;4.30;58.02;102056.75;3588121;40;20080;-61
2022/03/10 02:23:11;;;;;;;31.83;21.13;;;;;;;4.27;58.77;102060.34;3586456;40;20070;-62
2022/03/10 02:25:39;;;;;;;36.88;20.42;;;;;;;4.21;59.13;102057.75;3586952;40;20056;-61
2022/03/10 02:28:06;;;;;;;33.95;21.65;;;;;;;4.15;58.88;102063.19;3578306;40;20043;-61
2022/03/10 02:30:34;;;;;;;34.22;21.88;;;;;;;3.95;59.63;102036.88;3590887;40;20044;-62
2022/03/10 02:33:01;;;;;;;34.47;21.27;;;;;;;4.06;59.63;102068.63;3588161;40;20047;-61
2022/03/10 02:35:27;;;;;;;32.95;21.15;;;;;;;4.01;58.82;102066.06;3585791;40;20080;-61
2022/03/10 02:37:54;;;;;;;35.85;22.15;;;;;;;3.86;59.70;102042.34;3587042;40;20378;-62
2022/03/10 02:40:20;;;;;;;37.97;22.27;;;;;;;3.99;60.17;102061.66;3586061;40;20048;-61
2022/03/10 02:42:46;;;;;;;36.85;21.30;;;;;;;3.98;60.72;102059.91;3588711;39;20048;-62
2022/03/10 02:45:11;;;;;;;34.30;21.73;;;;;;;3.79;60.54;102044.22;3585869;40;20070;-62
2022/03/10 02:47:37;;;;;;;36.10;20.92;;;;;;;3.86;60.06;102061.81;3586931;40;20044;-62
2022/03/10 02:50:06;;;;;;;32.78;21.05;;;;;;;3.86;60.84;102061.81;3586789;40;20067;-62
2022/03/10 02:52:34;;;;;;;35.67;21.38;;;;;;;3.84;61.04;102068.97;3589487;40;20043;-62
2022/03/10 02:55:00;;;;;;;35.58;22.70;;;;;;;3.82;61.07;102065.44;3590965;40;20095;-62
2022/03/10 02:57:27;;;;;;;32.70;21.80;;;;;;;3.81;60.39;102057.50;3592368;40;20415;-61
2022/03/10 02:59:53;;;;;;;35.60;21.15;;;;;;;3.80;60.32;102055.72;3589019;40;20044;-62
2022/03/10 03:02:19;;;;;;;36.38;21.48;;;;;;;3.80;61.57;102061.91;3590645;39;20470;-63
2022/03/10 03:04:45;;;;;;;37.90;21.50;;;;;;;3.81;60.02;102069.00;3592572;40;20325;-62
2022/03/10 03:07:10;;;;;;;38.33;22.00;;;;;;;3.83;60.65;102063.66;3592737;40;20187;-62
2022/03/10 03:09:36;;;;;;;37.00;21.13;;;;;;;3.80;61.13;102061.91;3593355;40;20063;-63
2022/03/10 03:12:02;;;;;;;40.30;21.95;;;;;;;3.78;61.55;102061.06;3593103;40;20044;-63
2022/03/10 03:14:27;;;;;;;39.17;22.85;;;;;;;3.76;61.11;102060.19;3591699;40;20040;-63
2022/03/10 03:16:57;;;;;;;34.65;21.23;;;;;;;3.73;60.88;102065.56;3589865;40;20043;-63
2022/03/10 03:19:25;;;;;;;35.50;21.65;;;;;;;3.69;62.20;102066.50;3588994;40;20057;-62
2022/03/10 03:21:51;;;;;;;40.88;22.20;;;;;;;3.69;61.55;102072.72;3586743;40;20075;-62
2022/03/10 03:24:18;;;;;;;36.13;22.05;;;;;;;3.64;62.42;102074.53;3593301;39;20062;-63
2022/03/10 03:26:44;;;;;;;37.35;22.75;;;;;;;3.55;61.86;102061.34;3589556;40;20368;-62
2022/03/10 03:29:10;;;;;;;35.78;22.38;;;;;;;3.58;61.04;102071.06;3588409;40;20052;-63
2022/03/10 03:31:37;;;;;;;36.13;22.30;;;;;;;3.53;60.85;102075.59;3591106;40;20376;-63
2022/03/10 03:34:10;;;;;;;36.45;21.98;;;;;;;2.95;61.50;101990.38;3589028;39;20419;-63
2022/03/10 03:36:43;;;;;;;36.22;21.77;;;;;;;3.39;61.17;102063.31;3591738;40;20043;-61
2022/03/10 03:39:10;;;;;;;33.60;20.85;;;;;;;3.40;61.74;102081.06;3593648;40;20100;-62
2022/03/10 03:41:36;;;;;;;35.03;20.70;;;;;;;3.40;61.35;102085.50;3592167;40;20092;-62
2022/03/10 03:44:03;;;;;;;36.85;21.33;;;;;;;3.36;62.03;102084.66;3591947;39;20085;-63
2022/03/10 03:46:29;;;;;;;34.22;20.60;;;;;;;3.19;61.22;102052.06;3591250;40;20055;-62
2022/03/10 03:48:55;;;;;;;36.28;20.73;;;;;;;3.32;62.28;102080.25;3593812;40;20087;-59
2022/03/10 03:51:22;;;;;;;32.92;20.55;;;;;;;3.30;60.97;102087.38;3589992;40;20056;-60
2022/03/10 03:53:49;;;;;;;35.80;20.75;;;;;;;3.27;61.74;102087.41;3586734;40;20111;-62
2022/03/10 03:56:16;;;;;;;37.58;22.40;;;;;;;3.24;61.91;102100.75;3590522;40;20056;-62
2022/03/10 03:58:42;;;;;;;34.35;20.05;;;;;;;3.20;62.19;102098.97;3586792;40;20088;-62
2022/03/10 04:01:08;;;;;;;34.97;21.88;;;;;;;3.16;61.47;102100.81;3577540;40;20406;-62
2022/03/10 04:03:33;;;;;;;36.63;21.20;;;;;;;3.14;61.74;102096.41;3586851;40;20056;-63
2022/03/10 04:05:59;;;;;;;35.10;20.75;;;;;;;3.12;62.06;102100.88;3586560;40;20044;-63
2022/03/10 04:08:25;;;;;;;34.60;21.73;;;;;;;3.06;62.67;102092.94;3587485;40;20059;-63
2022/03/10 04:10:52;;;;;;;39.78;21.52;;;;;;;2.82;62.44;102063.06;3590119;40;20052;-62
2022/03/10 04:13:21;;;;;;;37.53;21.38;;;;;;;3.00;62.96;102105.38;3590480;39;20047;-62
2022/03/10 04:15:51;;;;;;;38.08;22.08;;;;;;;2.98;61.43;102112.50;3592867;40;20502;-62
2022/03/10 04:18:17;;;;;;;36.80;20.73;;;;;;;2.96;63.00;102111.63;3582831;40;20059;-62
2022/03/10 04:20:45;;;;;;;38.08;20.98;;;;;;;2.47;62.30;102028.91;3592363;39;20066;-62
2022/03/10 04:23:12;;;;;;;36.70;22.13;;;;;;;2.93;63.68;102109.00;3592898;40;20076;-63
2022/03/10 04:25:38;;;;;;;41.42;22.95;;;;;;;2.86;63.60;102096.69;3590182;40;20063;-60
2022/03/10 04:28:04;;;;;;;39.85;21.55;;;;;;;2.94;65.00;102101.91;3593334;40;20052;-61
2022/03/10 04:30:32;;;;;;;36.63;22.80;;;;;;;2.88;63.65;102089.56;3592519;40;20060;-63
2022/03/10 04:33:00;;;;;;;37.58;21.73;;;;;;;2.98;63.17;102104.53;3592318;39;20051;-62
2022/03/10 04:35:27;;;;;;;36.60;21.50;;;;;;;2.99;63.41;102106.28;3590903;40;20056;-62
2022/03/10 04:37:54;;;;;;;36.83;21.77;;;;;;;3.01;63.01;102107.19;3591875;40;20092;-62
2022/03/10 04:40:22;;;;;;;37.35;21.60;;;;;;;3.03;63.42;102104.47;3591143;40;20041;-62
2022/03/10 04:42:50;;;;;;;33.22;20.95;;;;;;;3.02;63.79;102103.59;3588088;40;20068;-63
2022/03/10 04:45:16;;;;;;;33.03;20.80;;;;;;;3.04;64.53;102106.22;3591379;40;20052;-63
2022/03/10 04:47:42;;;;;;;38.15;21.75;;;;;;;3.03;64.81;102100.06;3585636;40;20064;-63
2022/03/10 04:50:11;;;;;;;38.63;22.20;;;;;;;3.01;63.42;102100.94;3588705;40;20067;-60
2022/03/10 04:52:38;;;;;;;33.65;20.88;;;;;;;2.83;63.39;102079.91;3588361;40;20083;-60
2022/03/10 04:55:06;;;;;;;34.22;21.27;;;;;;;2.89;64.03;102096.66;3589352;40;20079;-61
2022/03/10 04:57:31;;;;;;;36.30;20.85;;;;;;;2.84;62.97;102098.47;3586328;40;20052;-61
2022/03/10 04:59:57;;;;;;;37.35;21.80;;;;;;;2.82;63.00;102096.72;3585015;40;20067;-61
2022/03/10 05:02:23;;;;;;;37.63;22.00;;;;;;;2.83;64.42;102101.16;3590182;39;20070;-62
2022/03/10 05:04:48;;;;;;;33.17;20.48;;;;;;;2.83;64.41;102096.72;3591962;40;20048;-61
2022/03/10 05:07:14;;;;;;;32.45;21.10;;;;;;;2.85;63.60;102097.56;3592724;40;20099;-61
2022/03/10 05:09:39;;;;;;;35.95;21.48;;;;;;;2.78;63.26;102098.53;3592025;40;20275;-60
2022/03/10 05:12:05;;;;;;;38.28;21.48;;;;;;;2.85;63.60;102100.22;3592511;40;20048;-61
2022/03/10 05:14:31;;;;;;;38.45;21.13;;;;;;;2.84;64.43;102108.22;3593462;40;20043;-61
2022/03/10 05:16:57;;;;;;;36.45;21.92;;;;;;;2.81;64.32;102117.09;3581591;40;20074;-61
2022/03/10 05:19:23;;;;;;;39.08;22.75;;;;;;;2.76;62.94;102111.84;3590400;40;20051;-61
2022/03/10 05:21:50;;;;;;;37.38;21.95;;;;;;;2.73;63.43;102116.28;3591981;40;20382;-61
2022/03/10 05:24:16;;;;;;;37.97;21.52;;;;;;;2.45;63.48;102078.47;3589969;39;20417;-61
2022/03/10 05:26:41;;;;;;;36.50;20.77;;;;;;;2.67;63.06;102126.97;3593000;40;20125;-61
2022/03/10 05:29:07;;;;;;;38.70;22.00;;;;;;;2.60;63.23;102115.50;3591457;40;20068;-61
2022/03/10 05:31:33;;;;;;;37.65;21.85;;;;;;;2.52;63.17;102101.41;3591617;40;20298;-61
2022/03/10 05:33:58;;;;;;;39.88;22.15;;;;;;;2.56;63.91;102114.63;3586773;40;20075;-62
2022/03/10 05:36:24;;;;;;;37.80;21.73;;;;;;;2.54;64.04;102119.09;3592926;40;20047;-62
2022/03/10 05:38:50;;;;;;;38.97;21.50;;;;;;;2.40;62.56;102091.75;3589909;40;20243;-61
2022/03/10 05:41:15;;;;;;;37.00;21.38;;;;;;;2.54;62.89;102111.13;3591748;40;20278;-61
2022/03/10 05:43:41;;;;;;;35.38;20.60;;;;;;;2.52;64.04;102118.22;3588705;40;20052;-61
2022/03/10 05:46:07;;;;;;;34.90;21.10;;;;;;;2.52;63.86;102118.22;3592351;40;20090;-61
2022/03/10 05:48:33;;;;;;;35.13;20.58;;;;;;;2.50;63.57;102114.69;3590692;40;20056;-61
2022/03/10 05:50:58;;;;;;;36.08;20.20;;;;;;;2.34;63.90;102086.50;3589563;40;20043;-61
2022/03/10 05:53:25;;;;;;;35.38;19.80;;;;;;;2.50;63.24;102119.97;3591386;39;20088;-61
2022/03/10 05:55:51;;;;;;;33.40;19.23;;;;;;;2.47;64.26;102114.69;3592751;40;20044;-61
2022/03/10 05:58:17;;;;;;;35.65;20.63;;;;;;;2.51;63.16;102113.81;3587596;40;20352;-61
2022/03/10 06:00:43;;;;;;;35.30;20.25;;;;;;;2.53;63.83;102113.78;3591909;40;20051;-61
2022/03/10 06:03:09;;;;;;;35.53;20.08;;;;;;;2.52;64.01;102112.03;3592129;39;20056;-61
2022/03/10 06:05:34;;;;;;;38.88;20.85;;;;;;;2.49;63.66;102102.31;3589951;40;20413;-61
2022/03/10 06:08:00;;;;;;;40.72;20.35;;;;;;;2.53;63.25;102114.66;3590898;40;20050;-61
2022/03/10 06:10:26;;;;;;;42.35;20.95;;;;;;;2.53;62.87;102114.66;3587900;40;20052;-61
2022/03/10 06:12:52;;;;;;;34.58;19.10;;;;;;;2.53;63.14;102106.69;3588052;40;20059;-61
2022/03/10 06:15:18;;;;;;;39.80;20.50;;;;;;;2.48;63.97;102097.91;3586504;40;20402;-61
2022/03/10 06:17:43;;;;;;;34.42;19.13;;;;;;;2.60;63.07;102101.34;3583763;40;20048;-61
2022/03/10 06:20:13;;;;;;;34.88;20.40;;;;;;;2.71;61.76;102112.75;3587859;40;20144;-61
2022/03/10 06:22:39;;;;;;;37.20;20.17;;;;;;;2.77;62.28;102112.72;3591915;40;20048;-61
2022/03/10 06:25:06;;;;;;;33.35;19.02;;;;;;;2.88;61.11;102115.25;3585201;40;20079;-62
2022/03/10 06:27:32;;;;;;;34.42;20.20;;;;;;;2.97;61.28;102110.72;3592795;39;20067;-61
2022/03/10 06:29:58;;;;;;;35.85;20.20;;;;;;;3.09;60.51;102119.50;3591632;40;20110;-62
2022/03/10 06:32:25;;;;;;;33.63;20.10;;;;;;;3.19;60.74;102121.16;3587379;39;20060;-61
2022/03/10 06:34:57;;;;;;;37.50;19.45;;;;;;;3.30;59.52;102121.03;3590330;40;20084;-62
2022/03/10 06:37:23;;;;;;;35.47;19.30;;;;;;;3.40;59.21;102120.94;3589477;40;20321;-62
2022/03/10 06:39:49;;;;;;;34.72;20.00;;;;;;;3.59;58.70;102120.72;3588736;40;20475;-62
2022/03/10 06:42:15;;;;;;;36.95;19.38;;;;;;;3.80;58.52;102116.88;3592499;39;20044;-62
2022/03/10 06:44:41;;;;;;;34.63;19.48;;;;;;;4.04;57.61;102116.56;3593987;40;20062;-62
2022/03/10 06:47:12;;;;;;;34.40;19.30;;;;;;;4.26;57.16;102114.47;3593194;40;20073;-63
2022/03/10 06:49:39;;;;;;;32.08;19.52;;;;;;;4.40;56.66;102112.47;3590951;39;20054;-62
2022/03/10 06:52:08;;;;;;;37.00;20.50;;;;;;;4.56;55.66;102118.44;3586455;40;20124;-63
2022/03/10 06:54:34;;;;;;;37.05;19.77;;;;;;;4.70;55.93;102126.22;3590253;39;20040;-63
2022/03/10 06:57:00;;;;;;;38.40;20.95;;;;;;;4.84;55.86;102128.63;3592484;39;20092;-62
2022/03/10 06:59:26;;;;;;;37.58;20.95;;;;;;;4.83;54.31;102110.91;3592928;40;20051;-63
2022/03/10 07:01:51;;;;;;;36.42;21.90;;;;;;;5.09;54.17;102134.41;3589504;40;20048;-62
2022/03/10 07:04:17;;;;;;;41.22;22.20;;;;;;;5.17;54.18;102137.84;3591537;39;20052;-62
2022/03/10 07:06:43;;;;;;;39.88;20.17;;;;;;;5.20;53.96;102134.22;3587037;40;20048;-64
2022/03/10 07:09:08;;;;;;;40.53;20.80;;;;;;;5.26;53.96;102136.75;3592857;40;20060;-63
2022/03/10 07:11:34;;;;;;;35.72;20.13;;;;;;;5.34;54.36;102135.72;3593484;39;20298;-63
2022/03/10 07:13:59;;;;;;;33.78;19.65;;;;;;;5.42;53.41;102134.69;3589050;39;20053;-63
2022/03/10 07:16:25;;;;;;;34.08;19.40;;;;;;;5.52;53.22;102134.50;3592758;40;20056;-63
2022/03/10 07:18:51;;;;;;;37.55;19.52;;;;;;;5.63;53.22;102142.28;3588263;39;20047;-63
2022/03/10 07:21:23;;;;;;;35.83;21.05;;;;;;;5.22;52.44;102058.63;3590970;39;20298;-63
2022/03/10 07:23:50;;;;;;;35.20;20.33;;;;;;;5.81;52.82;102125.88;3586434;39;20043;-62
2022/03/10 07:26:16;;;;;;;34.47;21.10;;;;;;;6.04;51.85;102133.41;3595710;39;20062;-62
2022/03/10 07:28:42;;;;;;;36.42;19.88;;;;;;;6.27;51.46;102132.91;3593615;40;20059;-62
2022/03/10 07:31:09;;;;;;;34.40;19.55;;;;;;;6.52;51.11;102135.00;3591727;40;20476;-62
2022/03/10 07:33:35;;;;;;;32.95;19.83;;;;;;;6.81;49.92;102138.75;3592138;39;20047;-62
2022/03/10 07:36:02;;;;;;;34.78;19.67;;;;;;;7.10;49.64;102128.19;3591942;40;20054;-62
2022/03/10 07:38:27;;;;;;;34.15;20.45;;;;;;;7.43;48.46;102128.19;3591607;40;20463;-62
2022/03/10 07:40:54;;;;;;;30.58;19.83;;;;;;;7.72;47.09;102132.72;3590833;40;20068;-62
2022/03/10 07:43:20;;;;;;;32.58;19.88;;;;;;;8.02;46.53;102133.59;3590074;40;20060;-63
2022/03/10 07:45:46;;;;;;;31.77;19.67;;;;;;;8.33;46.48;102135.34;3591211;40;20058;-63
2022/03/10 07:48:11;;;;;;;34.30;19.92;;;;;;;8.62;44.85;102130.88;3590760;40;20133;-63
2022/03/10 07:50:37;;;;;;;33.28;20.08;;;;;;;8.90;44.11;102136.22;3592362;40;20047;-63
2022/03/10 07:53:04;;;;;;;33.33;20.08;;;;;;;9.14;43.47;102134.50;3589615;40;20076;-63
2022/03/10 07:55:29;;;;;;;39.30;20.95;;;;;;;9.37;43.63;102128.31;3587141;40;20052;-63
2022/03/10 07:57:55;;;;;;;37.75;20.27;;;;;;;9.58;43.12;102132.00;3590482;40;20083;-63
2022/03/10 08:00:21;;;;;;;34.97;19.80;;;;;;;9.87;41.83;102129.13;3591072;39;20390;-61
2022/03/10 08:02:47;;;;;;;32.83;20.05;;;;;;;10.05;41.62;102124.84;3588439;39;20050;-62
2022/03/10 08:05:12;;;;;;;33.30;20.25;;;;;;;10.24;41.78;102119.63;3591722;40;20074;-63
2022/03/10 08:07:38;;;;;;;33.33;20.55;;;;;;;10.41;41.15;102116.31;3592183;40;20052;-63
2022/03/10 08:10:06;;;;;;;33.92;21.13;;;;;;;10.62;40.10;102125.31;3590118;40;20075;-63
2022/03/10 08:12:33;;;;;;;34.95;20.83;;;;;;;10.84;39.49;102128.84;3593205;39;20088;-63
2022/03/10 08:15:01;;;;;;;38.15;21.73;;;;;;;11.01;39.23;102132.66;3589495;40;20044;-62
2022/03/10 08:17:27;;;;;;;34.25;21.55;;;;;;;11.21;39.50;102126.41;3591499;40;20128;-63
2022/03/10 08:19:54;;;;;;;38.45;20.73;;;;;;;11.36;38.78;102123.06;3590031;40;20048;-63
2022/03/10 08:22:21;;;;;;;35.03;21.30;;;;;;;11.60;37.72;102138.09;3592732;39;20052;-63
2022/03/10 08:24:47;;;;;;;31.90;20.90;;;;;;;11.80;38.03;102136.34;3593630;39;20090;-61
2022/03/10 08:27:15;;;;;;;37.70;21.00;;;;;;;11.89;37.06;102108.97;3586483;39;20067;-61
2022/03/10 08:29:44;;;;;;;32.22;20.10;;;;;;;12.16;36.64;102135.59;3592011;39;20389;-61
2022/03/10 08:32:11;;;;;;;29.27;19.85;;;;;;;12.27;35.94;102133.22;3592690;39;20060;-61
2022/03/10 08:34:37;;;;;;;34.10;20.33;;;;;;;12.42;35.96;102132.50;3592059;40;20089;-63
2022/03/10 08:37:05;;;;;;;32.38;19.75;;;;;;;12.50;35.44;102129.44;3592170;39;20426;-61
2022/03/10 08:39:31;;;;;;;30.30;19.23;;;;;;;12.53;35.08;102127.47;3592947;39;20067;-61
2022/03/10 08:41:57;;;;;;;30.27;19.52;;;;;;;12.43;34.99;102106.41;3587772;39;20047;-62
2022/03/10 08:44:23;;;;;;;31.95;20.13;;;;;;;12.65;35.43;102123.25;3591894;39;20063;-62
2022/03/10 08:46:49;;;;;;;30.80;20.58;;;;;;;12.67;35.02;102089.00;3589299;40;20089;-62
2022/03/10 08:49:17;;;;;;;33.75;21.10;;;;;;;12.99;34.26;102116.16;3590954;40;20084;-63
2022/03/10 08:51:44;;;;;;;30.88;19.70;;;;;;;13.16;34.07;102121.59;3588769;40;20059;-62
2022/03/10 08:54:12;;;;;;;32.17;20.77;;;;;;;13.10;34.55;102092.22;3590989;39;20060;-63
2022/03/10 08:56:38;;;;;;;30.00;19.42;;;;;;;13.36;33.96;102106.19;3588323;40;20048;-63
2022/03/10 08:59:04;;;;;;;30.85;20.02;;;;;;;13.61;33.98;102125.53;3588230;40;20048;-63
2022/03/10 09:01:30;;;;;;;35.50;20.45;;;;;;;13.78;33.54;102110.25;3591624;40;20070;-63
2022/03/10 09:03:55;;;;;;;30.00;19.52;;;;;;;14.01;33.71;102117.94;3592159;39;20051;-62
2022/03/10 09:06:21;;;;;;;36.80;20.35;;;;;;;14.15;32.98;102120.75;3592613;40;20046;-63
2022/03/10 09:08:48;;;;;;;31.92;20.80;;;;;;;14.33;33.35;102108.00;3591390;40;20053;-62
2022/03/10 09:11:15;;;;;;;34.20;20.88;;;;;;;14.29;32.70;102110.97;3587476;40;20052;-63
2022/03/10 09:13:44;;;;;;;31.35;19.90;;;;;;;14.43;32.21;102104.78;3589476;40;20059;-63
2022/03/10 09:16:10;;;;;;;28.33;19.35;;;;;;;14.60;32.19;102099.31;3589284;40;20048;-63
2022/03/10 09:18:35;;;;;;;39.60;20.38;;;;;;;14.82;32.13;102098.91;3588814;40;20079;-62
2022/03/10 09:21:04;;;;;;;30.80;19.85;;;;;;;14.99;31.95;102101.47;3589189;40;20067;-63
2022/03/10 09:23:29;;;;;;;29.13;19.98;;;;;;;15.13;31.66;102099.75;3592869;39;20058;-63
2022/03/10 09:25:55;;;;;;;32.47;20.58;;;;;;;15.13;31.73;102094.34;3590976;39;20048;-62
2022/03/10 09:28:21;;;;;;;29.67;20.38;;;;;;;15.22;32.13;102101.91;3591078;40;20048;-62
2022/03/10 09:30:46;;;;;;;31.83;20.20;;;;;;;15.44;32.59;102090.63;3586269;40;20048;-62
2022/03/10 09:33:12;;;;;;;34.55;22.85;;;;;;;15.50;31.27;102090.25;3580125;40;20067;-60
2022/03/10 09:35:37;;;;;;;31.02;20.25;;;;;;;15.66;31.96;102084.75;3594121;40;20051;-61
2022/03/10 09:38:03;;;;;;;30.48;20.77;;;;;;;15.82;31.07;102079.25;3592710;39;20051;-61
2022/03/10 09:40:29;;;;;;;29.60;19.77;;;;;;;15.97;30.74;102080.97;3595058;39;20051;-60
2022/03/10 09:42:55;;;;;;;29.15;19.30;;;;;;;15.93;31.11;102077.59;3594890;39;20064;-60
2022/03/10 09:45:23;;;;;;;27.88;19.25;;;;;;;16.01;31.02;102075.25;3589508;39;20052;-61
2022/03/10 09:47:48;;;;;;;30.00;18.95;;;;;;;16.15;31.36;102065.34;3586018;40;20290;-61
2022/03/10 09:50:18;;;;;;;30.35;19.65;;;;;;;16.32;31.02;102067.81;3583281;39;20070;-61
2022/03/10 09:52:46;;;;;;;28.88;20.00;;;;;;;16.56;32.12;102075.31;3586170;40;20066;-63
2022/03/10 09:55:15;;;;;;;29.05;19.40;;;;;;;16.77;30.05;102073.00;3607330;22;20100;-62
2022/03/10 09:57:44;;;;;;;28.10;19.73;;;;;;;16.86;30.21;102073.25;3588293;40;20063;-62
2022/03/10 10:00:14;;;;;;;29.35;19.15;;;;;;;16.77;30.57;102062.13;3584786;40;20053;-62
2022/03/10 10:02:41;;;;;;;28.48;18.23;;;;;;;16.90;30.29;102063.03;3585838;39;20044;-62
2022/03/10 10:05:20;;;;;;;27.10;18.60;;;;;;;16.75;30.09;102032.41;3589686;39;20054;-61
2022/03/10 10:08:13;;;;;;;31.33;20.40;;;;;;;17.06;30.38;102062.84;3589265;39;20079;-62
2022/03/10 10:10:44;;;;;;;30.00;18.60;;;;;;;17.14;30.64;102061.34;3591071;39;20068;-62
2022/03/10 10:13:42;;;;;;;27.33;19.50;;;;;;;17.10;29.91;102048.09;3587494;39;20060;-62
2022/03/10 10:16:14;;;;;;;27.98;18.80;;;;;;;17.16;30.67;102048.53;3592676;39;20317;-62
2022/03/10 10:18:41;;;;;;;29.90;19.40;;;;;;;17.27;30.62;102052.34;3592379;39;20044;-62
2022/03/10 10:21:10;;;;;;;28.08;19.75;;;;;;;17.38;30.43;102063.34;3591624;39;20087;-61
2022/03/10 10:23:39;;;;;;;33.55;18.65;;;;;;;17.47;30.07;102046.34;3591964;39;20056;-62
2022/03/10 10:26:09;;;;;;;26.63;18.67;;;;;;;17.56;31.12;102040.25;3591731;39;20349;-62
2022/03/10 10:28:54;;;;;;;27.02;18.40;;;;;;;17.65;29.77;102055.03;3589138;40;20043;-62
2022/03/10 10:31:27;;;;;;;26.40;17.73;;;;;;;17.76;29.40;102044.25;3591612;40;20055;-62
2022/03/10 10:33:58;;;;;;;;;;;;;;;17.75;30.06;102044.34;3591715;39;20064;-62
2022/03/10 10:36:28;;;;;;;23.48;16.70;;;;;;;17.82;29.69;102049.28;3588923;40;19936;-62
2022/03/10 10:39:11;;;;;;;27.13;17.98;;;;;;;17.79;29.86;102041.34;3591203;39;20059;-61
2022/03/10 10:41:39;;;;;;;26.50;18.13;;;;;;;17.93;29.64;102032.16;3592241;40;20087;-63
2022/03/10 10:44:09;;;;;;;24.50;17.00;;;;;;;18.03;28.83;102033.22;3581521;39;20037;-62
2022/03/10 10:46:38;;;;;;;27.23;17.20;;;;;;;18.17;29.83;102032.19;3591859;40;20055;-61
2022/03/10 10:49:20;;;;;;;25.42;16.73;;;;;;;18.39;29.68;102033.28;3592678;39;20054;-61
2022/03/10 10:51:55;;;;;;;26.45;17.35;;;;;;;18.38;28.89;102005.22;3589309;40;20386;-62
2022/03/10 10:54:21;;;;;;;25.23;16.98;;;;;;;18.60;29.99;102031.66;3590890;39;20052;-62
2022/03/10 10:56:53;;;;;;;25.27;17.67;;;;;;;18.76;28.90;102028.66;3588508;40;20052;-62
2022/03/10 10:59:39;;;;;;;25.75;17.17;;;;;;;18.91;29.57;102023.88;3587493;40;20087;-62
2022/03/10 11:02:20;;;;;;;24.25;17.00;;;;;;;19.03;28.54;102012.03;3588377;40;20071;-62
2022/03/10 11:04:53;;;;;;;23.00;16.88;;;;;;;19.05;28.04;102026.38;3589971;39;20060;-62
2022/03/10 11:07:21;;;;;;;24.17;17.02;;;;;;;19.18;28.74;102016.25;3588440;40;20067;-62
2022/03/10 11:09:51;;;;;;;26.15;16.85;;;;;;;19.23;29.15;102016.75;3588557;39;20046;-63
2022/03/10 11:12:18;;;;;;;23.70;16.73;;;;;;;19.48;28.20;102009.34;3586879;40;20045;-63
2022/03/10 11:14:46;;;;;;;24.60;16.75;;;;;;;19.53;27.94;102014.41;3588243;39;20059;-63
2022/03/10 11:17:16;;;;;;;24.33;16.50;;;;;;;19.36;27.91;102013.06;3589303;40;20126;-63
2022/03/10 11:19:45;;;;;;;24.80;16.40;;;;;;;19.32;27.93;102008.84;3587550;40;20055;-63